sensor_id;sensor_type;location;lat;lon;timestamp;pressure;altitude;pressure_sealevel;temperature;humidity
6389;BME280;3227;42.654;23.360;2022-12-18T00:01:00;95148.59;;;9.62;93.51
6389;BME280;3227;42.654;23.360;2022-12-18T00:03:31;95157.78;;;9.49;92.96
6389;BME280;3227;42.654;23.360;2022-12-18T00:05:58;95144.75;;;9.30;92.14
6389;BME280;3227;42.654;23.360;2022-12-18T00:08:25;95147.28;;;9.28;92.43
6389;BME280;3227;42.654;23.360;2022-12-18T00:10:52;95165.00;;;9.18;92.73
6389;BME280;3227;42.654;23.360;2022-12-18T00:13:19;95164.94;;;9.14;93.54
6389;BME280;3227;42.654;23.360;2022-12-18T00:15:47;95164.94;;;9.14;93.98
6389;BME280;3227;42.654;23.360;2022-12-18T00:18:13;95174.44;;;9.20;93.96
6389;BME280;3227;42.654;23.360;2022-12-18T00:20:40;95175.19;;;9.16;92.73
6389;BME280;3227;42.654;23.360;2022-12-18T00:23:07;95183.72;;;9.16;93.37
6389;BME280;3227;42.654;23.360;2022-12-18T00:25:35;95175.06;;;9.05;92.58
6389;BME280;3227;42.654;23.360;2022-12-18T00:28:02;95186.22;;;9.12;92.09
6389;BME280;3227;42.654;23.360;2022-12-18T00:30:29;95181.81;;;9.02;92.68
6389;BME280;3227;42.654;23.360;2022-12-18T00:32:57;95191.44;;;9.18;93.99
6389;BME280;3227;42.654;23.360;2022-12-18T00:35:24;95185.50;;;9.21;92.80
6389;BME280;3227;42.654;23.360;2022-12-18T00:37:51;95181.03;;;9.07;92.25
6389;BME280;3227;42.654;23.360;2022-12-18T00:40:18;95193.13;;;9.18;92.73
6389;BME280;3227;42.654;23.360;2022-12-18T00:42:44;95196.47;;;9.12;91.73
6389;BME280;3227;42.654;23.360;2022-12-18T00:45:22;95199.06;;;9.16;92.92
6389;BME280;3227;42.654;23.360;2022-12-18T00:47:49;95173.47;;;9.13;92.28
6389;BME280;3227;42.654;23.360;2022-12-18T00:50:17;95193.16;;;9.19;91.91
6389;BME280;3227;42.654;23.360;2022-12-18T00:52:44;95203.31;;;9.16;93.46
6389;BME280;3227;42.654;23.360;2022-12-18T00:55:12;95191.22;;;9.06;92.24
6389;BME280;3227;42.654;23.360;2022-12-18T00:57:39;95186.16;;;9.09;92.73
6389;BME280;3227;42.654;23.360;2022-12-18T01:00:09;95213.66;;;9.24;92.17
6389;BME280;3227;42.654;23.360;2022-12-18T01:02:36;95107.69;;;8.51;91.49
6389;BME280;3227;42.654;23.360;2022-12-18T01:05:03;95216.78;;;9.04;90.71
6389;BME280;3227;42.654;23.360;2022-12-18T01:07:32;95158.28;;;8.70;91.62
6389;BME280;3227;42.654;23.360;2022-12-18T01:09:59;95228.00;;;9.12;93.42
6389;BME280;3227;42.654;23.360;2022-12-18T01:12:28;95227.16;;;9.15;92.83
6389;BME280;3227;42.654;23.360;2022-12-18T01:14:55;95221.28;;;9.19;91.86
6389;BME280;3227;42.654;23.360;2022-12-18T01:17:22;95228.09;;;9.19;90.76
6389;BME280;3227;42.654;23.360;2022-12-18T01:19:49;95227.97;;;9.11;90.60
6389;BME280;3227;42.654;23.360;2022-12-18T01:22:16;95229.50;;;9.01;89.41
6389;BME280;3227;42.654;23.360;2022-12-18T01:24:44;95227.69;;;8.94;90.24
6389;BME280;3227;42.654;23.360;2022-12-18T01:27:16;95230.75;;;8.75;90.55
6389;BME280;3227;42.654;23.360;2022-12-18T01:29:42;95240.75;;;8.63;89.79
6389;BME280;3227;42.654;23.360;2022-12-18T01:32:09;95244.84;;;8.55;89.73
6389;BME280;3227;42.654;23.360;2022-12-18T01:34:36;95245.69;;;8.54;90.21
6389;BME280;3227;42.654;23.360;2022-12-18T01:37:04;95231.22;;;8.54;90.54
6389;BME280;3227;42.654;23.360;2022-12-18T01:39:31;95239.84;;;8.61;91.35
6389;BME280;3227;42.654;23.360;2022-12-18T01:42:00;95197.44;;;8.25;89.89
6389;BME280;3227;42.654;23.360;2022-12-18T01:44:58;95249.25;;;8.62;90.06
6389;BME280;3227;42.654;23.360;2022-12-18T01:47:28;95248.13;;;8.48;89.53
6389;BME280;3227;42.654;23.360;2022-12-18T01:49:59;95249.81;;;8.47;90.75
6389;BME280;3227;42.654;23.360;2022-12-18T01:52:29;95258.09;;;8.35;90.33
6389;BME280;3227;42.654;23.360;2022-12-18T01:54:57;95254.78;;;8.39;90.12
6389;BME280;3227;42.654;23.360;2022-12-18T01:57:27;95250.53;;;8.42;90.88
6389;BME280;3227;42.654;23.360;2022-12-18T01:59:59;95260.75;;;8.42;89.88
6389;BME280;3227;42.654;23.360;2022-12-18T02:02:27;95269.66;;;8.20;89.13
6389;BME280;3227;42.654;23.360;2022-12-18T02:04:55;95251.72;;;8.15;90.95
6389;BME280;3227;42.654;23.360;2022-12-18T02:07:27;95252.91;;;8.32;91.64
6389;BME280;3227;42.654;23.360;2022-12-18T02:10:00;95270.78;;;8.32;89.27
6389;BME280;3227;42.654;23.360;2022-12-18T02:12:36;95267.41;;;8.33;89.43
6389;BME280;3227;42.654;23.360;2022-12-18T02:15:10;95229.75;;;7.84;88.87
6389;BME280;3227;42.654;23.360;2022-12-18T02:17:43;95283.06;;;8.10;90.06
6389;BME280;3227;42.654;23.360;2022-12-18T02:20:16;95286.63;;;8.18;91.11
6389;BME280;3227;42.654;23.360;2022-12-18T02:22:54;95278.09;;;8.17;90.06
6389;BME280;3227;42.654;23.360;2022-12-18T02:25:38;95264.47;;;8.15;91.46
6389;BME280;3227;42.654;23.360;2022-12-18T02:28:11;95287.03;;;8.36;91.21
6389;BME280;3227;42.654;23.360;2022-12-18T02:30:39;95277.69;;;8.36;89.13
6389;BME280;3227;42.654;23.360;2022-12-18T02:33:08;95288.72;;;8.35;89.82
6389;BME280;3227;42.654;23.360;2022-12-18T02:35:38;95248.22;;;8.12;89.50
6389;BME280;3227;42.654;23.360;2022-12-18T02:38:07;95290.09;;;8.20;88.72
6389;BME280;3227;42.654;23.360;2022-12-18T02:40:34;95292.66;;;8.21;90.47
6389;BME280;3227;42.654;23.360;2022-12-18T02:43:08;95297.91;;;8.27;89.62
6389;BME280;3227;42.654;23.360;2022-12-18T02:45:35;95291.84;;;8.22;88.98
6389;BME280;3227;42.654;23.360;2022-12-18T02:48:02;95271.00;;;8.02;88.87
6389;BME280;3227;42.654;23.360;2022-12-18T02:50:35;95201.50;;;7.74;90.06
6389;BME280;3227;42.654;23.360;2022-12-18T02:53:10;95294.31;;;8.19;87.80
6389;BME280;3227;42.654;23.360;2022-12-18T02:55:49;95277.75;;;8.00;88.87
6389;BME280;3227;42.654;23.360;2022-12-18T02:58:27;95296.59;;;8.06;89.53
6389;BME280;3227;42.654;23.360;2022-12-18T03:01:01;95304.13;;;8.01;90.03
6389;BME280;3227;42.654;23.360;2022-12-18T03:03:33;95283.06;;;8.10;92.11
6389;BME280;3227;42.654;23.360;2022-12-18T03:06:05;95268.94;;;7.86;87.78
6389;BME280;3227;42.654;23.360;2022-12-18T03:08:37;95298.91;;;7.95;89.25
6389;BME280;3227;42.654;23.360;2022-12-18T03:11:08;95305.56;;;7.88;89.57
6389;BME280;3227;42.654;23.360;2022-12-18T03:13:39;95315.31;;;8.08;90.26
6389;BME280;3227;42.654;23.360;2022-12-18T03:16:10;95321.47;;;8.16;89.28
6389;BME280;3227;42.654;23.360;2022-12-18T03:18:42;95317.88;;;8.06;89.25
6389;BME280;3227;42.654;23.360;2022-12-18T03:21:14;95312.81;;;8.09;89.00
6389;BME280;3227;42.654;23.360;2022-12-18T03:23:46;95300.75;;;8.02;89.19
6389;BME280;3227;42.654;23.360;2022-12-18T03:26:16;95321.56;;;8.20;89.19
6389;BME280;3227;42.654;23.360;2022-12-18T03:28:50;95326.56;;;8.14;87.14
6389;BME280;3227;42.654;23.360;2022-12-18T03:31:19;95322.31;;;8.15;88.68
6389;BME280;3227;42.654;23.360;2022-12-18T03:33:52;95326.34;;;8.05;87.57
6389;BME280;3227;42.654;23.360;2022-12-18T03:36:20;95333.84;;;7.99;88.37
6389;BME280;3227;42.654;23.360;2022-12-18T03:38:47;95344.84;;;7.95;87.23
6389;BME280;3227;42.654;23.360;2022-12-18T03:41:19;95336.94;;;7.84;88.69
6389;BME280;3227;42.654;23.360;2022-12-18T03:43:54;95330.97;;;7.84;88.81
6389;BME280;3227;42.654;23.360;2022-12-18T03:46:27;95236.03;;;7.22;87.15
6389;BME280;3227;42.654;23.360;2022-12-18T03:49:01;95346.81;;;7.71;87.60
6389;BME280;3227;42.654;23.360;2022-12-18T03:51:40;95358.63;;;7.67;87.35
6389;BME280;3227;42.654;23.360;2022-12-18T03:54:10;95350.03;;;7.29;87.72
6389;BME280;3227;42.654;23.360;2022-12-18T03:56:40;95368.41;;;7.49;89.18
6389;BME280;3227;42.654;23.360;2022-12-18T03:59:11;95370.72;;;7.41;89.19
6389;BME280;3227;42.654;23.360;2022-12-18T04:01:41;95370.94;;;7.49;89.87
6389;BME280;3227;42.654;23.360;2022-12-18T04:04:10;95370.38;;;7.60;88.43
6389;BME280;3227;42.654;23.360;2022-12-18T04:06:39;95367.81;;;7.60;87.63
6389;BME280;3227;42.654;23.360;2022-12-18T04:09:07;95370.41;;;7.62;87.89
6389;BME280;3227;42.654;23.360;2022-12-18T04:11:34;95367.97;;;7.67;87.53
6389;BME280;3227;42.654;23.360;2022-12-18T04:14:01;95376.66;;;7.75;88.22
6389;BME280;3227;42.654;23.360;2022-12-18T04:16:30;95385.16;;;7.74;86.99
6389;BME280;3227;42.654;23.360;2022-12-18T04:18:56;95385.16;;;7.74;87.66
6389;BME280;3227;42.654;23.360;2022-12-18T04:21:23;95356.47;;;7.48;86.89
6389;BME280;3227;42.654;23.360;2022-12-18T04:23:50;95356.56;;;7.52;87.76
6389;BME280;3227;42.654;23.360;2022-12-18T04:26:17;95392.78;;;7.72;85.83
6389;BME280;3227;42.654;23.360;2022-12-18T04:28:46;95384.41;;;7.78;86.19
6389;BME280;3227;42.654;23.360;2022-12-18T04:31:13;95391.91;;;7.72;85.56
6389;BME280;3227;42.654;23.360;2022-12-18T04:33:41;95367.34;;;7.41;85.16
6389;BME280;3227;42.654;23.360;2022-12-18T04:36:08;95346.44;;;7.21;86.14
6389;BME280;3227;42.654;23.360;2022-12-18T04:38:35;95410.38;;;7.61;86.32
6389;BME280;3227;42.654;23.360;2022-12-18T04:41:02;95389.38;;;7.39;85.67
6389;BME280;3227;42.654;23.360;2022-12-18T04:43:28;95418.59;;;7.51;85.36
6389;BME280;3227;42.654;23.360;2022-12-18T04:46:03;95421.28;;;7.56;85.47
6389;BME280;3227;42.654;23.360;2022-12-18T04:48:30;95389.78;;;7.21;83.52
6389;BME280;3227;42.654;23.360;2022-12-18T04:50:58;95434.31;;;7.35;83.64
6389;BME280;3227;42.654;23.360;2022-12-18T04:53:25;95434.41;;;7.38;85.20
6389;BME280;3227;42.654;23.360;2022-12-18T04:56:02;95415.81;;;7.11;83.90
6389;BME280;3227;42.654;23.360;2022-12-18T04:58:29;95446.09;;;7.30;83.92
6389;BME280;3227;42.654;23.360;2022-12-18T05:00:56;95439.22;;;7.28;83.69
6389;BME280;3227;42.654;23.360;2022-12-18T05:03:23;95434.22;;;7.31;83.33
6389;BME280;3227;42.654;23.360;2022-12-18T05:05:50;95443.59;;;7.33;83.18
6389;BME280;3227;42.654;23.360;2022-12-18T05:08:18;95439.16;;;7.24;81.55
6389;BME280;3227;42.654;23.360;2022-12-18T05:10:45;95408.84;;;7.04;82.94
6389;BME280;3227;42.654;23.360;2022-12-18T05:13:12;95444.03;;;7.17;82.44
6389;BME280;3227;42.654;23.360;2022-12-18T05:15:39;95465.41;;;7.22;82.42
6389;BME280;3227;42.654;23.360;2022-12-18T05:18:07;95463.84;;;7.27;82.98
6389;BME280;3227;42.654;23.360;2022-12-18T05:20:34;95472.91;;;7.17;83.00
6389;BME280;3227;42.654;23.360;2022-12-18T05:23:01;95466.34;;;7.24;82.94
6389;BME280;3227;42.654;23.360;2022-12-18T05:25:29;95474.53;;;7.14;82.38
6389;BME280;3227;42.654;23.360;2022-12-18T05:27:56;95467.59;;;7.10;83.00
6389;BME280;3227;42.654;23.360;2022-12-18T05:30:22;95483.50;;;7.00;82.92
6389;BME280;3227;42.654;23.360;2022-12-18T05:32:49;95494.28;;;6.93;82.66
6389;BME280;3227;42.654;23.360;2022-12-18T05:35:16;95495.97;;;6.91;83.59
6389;BME280;3227;42.654;23.360;2022-12-18T05:37:43;95484.75;;;6.85;82.83
6389;BME280;3227;42.654;23.360;2022-12-18T05:40:10;95494.00;;;6.82;82.22
6389;BME280;3227;42.654;23.360;2022-12-18T05:42:39;95489.84;;;6.85;83.11
6389;BME280;3227;42.654;23.360;2022-12-18T05:45:06;95459.28;;;6.85;82.53
6389;BME280;3227;42.654;23.360;2022-12-18T05:47:34;95496.22;;;7.00;82.43
6389;BME280;3227;42.654;23.360;2022-12-18T05:50:00;95494.50;;;6.99;82.74
6389;BME280;3227;42.654;23.360;2022-12-18T05:52:27;95492.34;;;6.84;81.67
6389;BME280;3227;42.654;23.360;2022-12-18T05:54:54;95467.28;;;6.69;83.15
6389;BME280;3227;42.654;23.360;2022-12-18T05:57:26;95502.78;;;6.92;81.64
6389;BME280;3227;42.654;23.360;2022-12-18T05:59:54;95487.84;;;6.75;81.44
6389;BME280;3227;42.654;23.360;2022-12-18T06:02:21;95507.56;;;6.81;81.29
6389;BME280;3227;42.654;23.360;2022-12-18T06:04:47;95510.97;;;6.81;81.47
6389;BME280;3227;42.654;23.360;2022-12-18T06:07:14;95475.56;;;6.62;81.79
6389;BME280;3227;42.654;23.360;2022-12-18T06:09:41;95515.38;;;6.87;80.78
6389;BME280;3227;42.654;23.360;2022-12-18T06:12:08;95500.50;;;6.72;81.60
6389;BME280;3227;42.654;23.360;2022-12-18T06:14:36;95518.63;;;6.81;81.45
6389;BME280;3227;42.654;23.360;2022-12-18T06:17:04;95510.88;;;6.78;80.71
6389;BME280;3227;42.654;23.360;2022-12-18T06:19:31;95514.97;;;6.73;81.90
6389;BME280;3227;42.654;23.360;2022-12-18T06:21:57;95518.22;;;6.69;82.33
6389;BME280;3227;42.654;23.360;2022-12-18T06:24:24;95518.34;;;6.72;81.86
6389;BME280;3227;42.654;23.360;2022-12-18T06:26:51;95529.78;;;6.58;81.56
6389;BME280;3227;42.654;23.360;2022-12-18T06:29:18;95533.22;;;6.59;82.41
6389;BME280;3227;42.654;23.360;2022-12-18T06:31:44;95535.53;;;6.79;82.38
6389;BME280;3227;42.654;23.360;2022-12-18T06:34:13;95543.97;;;6.78;82.18
6389;BME280;3227;42.654;23.360;2022-12-18T06:36:39;95491.19;;;6.19;81.36
6389;BME280;3227;42.654;23.360;2022-12-18T06:39:06;95557.16;;;6.65;82.28
6389;BME280;3227;42.654;23.360;2022-12-18T06:41:33;95559.09;;;6.72;82.45
6389;BME280;3227;42.654;23.360;2022-12-18T06:44:00;95570.19;;;6.74;82.09
6389;BME280;3227;42.654;23.360;2022-12-18T06:46:27;95567.81;;;6.80;81.94
6389;BME280;3227;42.654;23.360;2022-12-18T06:48:53;95562.84;;;6.83;81.64
6389;BME280;3227;42.654;23.360;2022-12-18T06:51:22;95568.06;;;6.88;81.07
6389;BME280;3227;42.654;23.360;2022-12-18T06:53:49;95562.63;;;6.77;80.65
6389;BME280;3227;42.654;23.360;2022-12-18T06:56:16;95563.94;;;6.92;80.87
6389;BME280;3227;42.654;23.360;2022-12-18T06:58:43;95552.72;;;6.86;79.85
6389;BME280;3227;42.654;23.360;2022-12-18T07:01:11;95569.50;;;7.08;79.20
6389;BME280;3227;42.654;23.360;2022-12-18T07:03:38;95576.34;;;7.09;79.04
6389;BME280;3227;42.654;23.360;2022-12-18T07:06:05;95579.41;;;6.98;77.60
6389;BME280;3227;42.654;23.360;2022-12-18T07:08:34;95576.09;;;6.73;78.92
6389;BME280;3227;42.654;23.360;2022-12-18T07:11:03;95588.91;;;6.76;78.62
6389;BME280;3227;42.654;23.360;2022-12-18T07:13:31;95580.63;;;6.82;78.56
6389;BME280;3227;42.654;23.360;2022-12-18T07:16:07;95578.19;;;6.86;79.26
6389;BME280;3227;42.654;23.360;2022-12-18T07:18:34;95579.47;;;7.01;78.92
6389;BME280;3227;42.654;23.360;2022-12-18T07:21:03;95563.09;;;6.93;79.37
6389;BME280;3227;42.654;23.360;2022-12-18T07:23:31;95583.91;;;7.06;78.60
6389;BME280;3227;42.654;23.360;2022-12-18T07:26:02;95583.59;;;7.24;78.93
6389;BME280;3227;42.654;23.360;2022-12-18T07:28:29;95554.84;;;7.00;76.97
6389;BME280;3227;42.654;23.360;2022-12-18T07:30:56;95575.97;;;6.97;76.54
6389;BME280;3227;42.654;23.360;2022-12-18T07:33:23;95587.00;;;6.96;77.57
6389;BME280;3227;42.654;23.360;2022-12-18T07:35:49;95604.06;;;6.99;76.49
6389;BME280;3227;42.654;23.360;2022-12-18T07:38:16;95604.47;;;6.85;77.55
6389;BME280;3227;42.654;23.360;2022-12-18T07:40:43;95603.16;;;6.97;78.42
6389;BME280;3227;42.654;23.360;2022-12-18T07:43:11;95591.84;;;6.88;77.98
6389;BME280;3227;42.654;23.360;2022-12-18T07:45:38;95603.19;;;6.98;77.93
6389;BME280;3227;42.654;23.360;2022-12-18T07:48:10;95591.91;;;6.90;77.58
6389;BME280;3227;42.654;23.360;2022-12-18T07:50:37;95617.69;;;7.01;76.48
6389;BME280;3227;42.654;23.360;2022-12-18T07:53:04;95563.50;;;6.51;76.51
6389;BME280;3227;42.654;23.360;2022-12-18T07:55:31;95605.94;;;6.77;77.64
6389;BME280;3227;42.654;23.360;2022-12-18T07:58:00;95571.81;;;6.45;77.99
6389;BME280;3227;42.654;23.360;2022-12-18T08:00:30;95607.88;;;6.59;78.15
6389;BME280;3227;42.654;23.360;2022-12-18T08:02:57;95616.06;;;6.49;78.37
6389;BME280;3227;42.654;23.360;2022-12-18T08:05:24;95610.06;;;6.47;78.21
6389;BME280;3227;42.654;23.360;2022-12-18T08:07:50;95609.06;;;6.43;77.73
6389;BME280;3227;42.654;23.360;2022-12-18T08:10:17;95634.44;;;6.66;77.95
6389;BME280;3227;42.654;23.360;2022-12-18T08:12:44;95643.16;;;6.47;78.37
6389;BME280;3227;42.654;23.360;2022-12-18T08:15:11;95661.97;;;6.52;78.37
6389;BME280;3227;42.654;23.360;2022-12-18T08:17:39;95651.66;;;6.47;79.32
6389;BME280;3227;42.654;23.360;2022-12-18T08:20:07;95664.03;;;6.62;79.51
6389;BME280;3227;42.654;23.360;2022-12-18T08:22:37;95665.25;;;6.48;77.85
6389;BME280;3227;42.654;23.360;2022-12-18T08:25:05;95673.53;;;6.42;78.75
6389;BME280;3227;42.654;23.360;2022-12-18T08:27:32;95664.63;;;6.30;78.83
6389;BME280;3227;42.654;23.360;2022-12-18T08:29:58;95679.00;;;6.53;79.75
6389;BME280;3227;42.654;23.360;2022-12-18T08:32:26;95682.97;;;6.70;79.14
6389;BME280;3227;42.654;23.360;2022-12-18T08:34:55;95682.78;;;6.64;77.91
6389;BME280;3227;42.654;23.360;2022-12-18T08:37:22;95688.94;;;6.71;78.16
6389;BME280;3227;42.654;23.360;2022-12-18T08:39:49;95685.00;;;6.80;78.18
6389;BME280;3227;42.654;23.360;2022-12-18T08:42:16;95631.72;;;6.61;77.64
6389;BME280;3227;42.654;23.360;2022-12-18T08:45:00;95673.66;;;6.71;78.09
6389;BME280;3227;42.654;23.360;2022-12-18T08:47:27;95680.03;;;6.58;77.06
6389;BME280;3227;42.654;23.360;2022-12-18T08:49:55;95674.69;;;6.51;77.90
6389;BME280;3227;42.654;23.360;2022-12-18T08:52:22;95675.50;;;6.49;77.39
6389;BME280;3227;42.654;23.360;2022-12-18T08:54:49;95693.91;;;6.68;78.49
6389;BME280;3227;42.654;23.360;2022-12-18T08:57:15;95697.44;;;6.71;77.34
6389;BME280;3227;42.654;23.360;2022-12-18T08:59:42;95659.00;;;6.64;77.64
6389;BME280;3227;42.654;23.360;2022-12-18T09:02:10;95611.44;;;6.37;76.04
6389;BME280;3227;42.654;23.360;2022-12-18T09:04:37;95685.31;;;6.64;75.76
6389;BME280;3227;42.654;23.360;2022-12-18T09:07:06;95673.84;;;6.52;76.06
6389;BME280;3227;42.654;23.360;2022-12-18T09:09:34;95679.31;;;6.62;76.69
6389;BME280;3227;42.654;23.360;2022-12-18T09:12:02;95691.84;;;6.81;75.81
6389;BME280;3227;42.654;23.360;2022-12-18T09:14:29;95632.66;;;6.63;75.92
6389;BME280;3227;42.654;23.360;2022-12-18T09:16:56;95667.94;;;7.05;76.09
6389;BME280;3227;42.654;23.360;2022-12-18T09:19:23;95683.53;;;7.14;74.43
6389;BME280;3227;42.654;23.360;2022-12-18T09:21:50;95679.94;;;7.07;74.78
6389;BME280;3227;42.654;23.360;2022-12-18T09:24:18;95688.91;;;7.23;75.61
6389;BME280;3227;42.654;23.360;2022-12-18T09:26:45;95653.38;;;7.01;73.97
6389;BME280;3227;42.654;23.360;2022-12-18T09:29:12;95703.41;;;7.24;75.21
6389;BME280;3227;42.654;23.360;2022-12-18T09:31:39;95640.31;;;6.90;73.01
6389;BME280;3227;42.654;23.360;2022-12-18T09:34:06;95689.84;;;6.98;73.16
6389;BME280;3227;42.654;23.360;2022-12-18T09:36:33;95636.41;;;6.74;75.43
6389;BME280;3227;42.654;23.360;2022-12-18T09:39:00;95639.84;;;6.75;73.58
6389;BME280;3227;42.654;23.360;2022-12-18T09:41:42;95678.00;;;6.73;72.81
6389;BME280;3227;42.654;23.360;2022-12-18T09:44:15;95689.34;;;6.83;72.79
6389;BME280;3227;42.654;23.360;2022-12-18T09:46:47;95691.84;;;6.81;72.52
6389;BME280;3227;42.654;23.360;2022-12-18T09:49:21;95682.91;;;6.69;73.79
6389;BME280;3227;42.654;23.360;2022-12-18T09:51:52;95670.53;;;6.54;73.83
6389;BME280;3227;42.654;23.360;2022-12-18T09:54:23;95692.34;;;6.71;72.88
6389;BME280;3227;42.654;23.360;2022-12-18T09:56:52;95626.25;;;6.49;73.97
6389;BME280;3227;42.654;23.360;2022-12-18T09:59:23;95689.84;;;6.98;73.98
6389;BME280;3227;42.654;23.360;2022-12-18T10:01:51;95676.75;;;6.87;73.67
6389;BME280;3227;42.654;23.360;2022-12-18T10:04:18;95686.47;;;6.99;73.56
6389;BME280;3227;42.654;23.360;2022-12-18T10:06:50;95695.06;;;7.03;72.66
6389;BME280;3227;42.654;23.360;2022-12-18T10:09:27;95654.94;;;6.70;70.65
6389;BME280;3227;42.654;23.360;2022-12-18T10:12:04;95677.47;;;6.83;71.05
6389;BME280;3227;42.654;23.360;2022-12-18T10:14:39;95628.84;;;6.51;71.58
6389;BME280;3227;42.654;23.360;2022-12-18T10:17:17;95648.94;;;6.68;72.17
6389;BME280;3227;42.654;23.360;2022-12-18T10:19:51;95685.97;;;6.84;71.78
6389;BME280;3227;42.654;23.360;2022-12-18T10:22:26;95655.94;;;6.75;72.28
6389;BME280;3227;42.654;23.360;2022-12-18T10:25:00;95647.47;;;6.75;73.36
6389;BME280;3227;42.654;23.360;2022-12-18T10:27:35;95672.06;;;7.01;72.98
6389;BME280;3227;42.654;23.360;2022-12-18T10:30:11;95690.72;;;7.27;72.18
6389;BME280;3227;42.654;23.360;2022-12-18T10:32:39;95689.16;;;7.31;71.41
6389;BME280;3227;42.654;23.360;2022-12-18T10:35:15;95657.34;;;6.91;71.28
6389;BME280;3227;42.654;23.360;2022-12-18T10:37:59;95690.69;;;6.99;71.02
6389;BME280;3227;42.654;23.360;2022-12-18T10:40:26;95688.56;;;6.85;71.39
6389;BME280;3227;42.654;23.360;2022-12-18T10:43:05;95680.22;;;6.90;71.20
6389;BME280;3227;42.654;23.360;2022-12-18T10:45:35;95687.09;;;7.19;72.45
6389;BME280;3227;42.654;23.360;2022-12-18T10:48:03;95681.06;;;7.17;71.24
6389;BME280;3227;42.654;23.360;2022-12-18T10:50:33;95638.22;;;6.78;71.12
6389;BME280;3227;42.654;23.360;2022-12-18T10:53:03;95687.28;;;6.98;73.17
6389;BME280;3227;42.654;23.360;2022-12-18T10:55:33;95640.72;;;6.77;73.32
6389;BME280;3227;42.654;23.360;2022-12-18T10:58:16;95669.69;;;7.06;74.08
6389;BME280;3227;42.654;23.360;2022-12-18T11:01:03;95648.47;;;7.07;74.33
6389;BME280;3227;42.654;23.360;2022-12-18T11:03:32;95676.25;;;7.26;72.18
6389;BME280;3227;42.654;23.360;2022-12-18T11:06:06;95681.56;;;7.05;70.35
6389;BME280;3227;42.654;23.360;2022-12-18T11:08:33;95631.09;;;6.68;70.57
6389;BME280;3227;42.654;23.360;2022-12-18T11:11:00;95667.91;;;7.03;71.00
6389;BME280;3227;42.654;23.360;2022-12-18T11:13:30;95668.13;;;7.11;71.23
6389;BME280;3227;42.654;23.360;2022-12-18T11:15:58;95685.97;;;7.11;69.13
6389;BME280;3227;42.654;23.360;2022-12-18T11:18:28;95686.16;;;7.17;71.14
6389;BME280;3227;42.654;23.360;2022-12-18T11:20:57;95676.19;;;7.23;69.57
6389;BME280;3227;42.654;23.360;2022-12-18T11:23:26;95667.66;;;6.96;69.31
6389;BME280;3227;42.654;23.360;2022-12-18T11:25:56;95689.63;;;6.92;68.85
6389;BME280;3227;42.654;23.360;2022-12-18T11:28:35;95687.50;;;6.79;69.24
6389;BME280;3227;42.654;23.360;2022-12-18T11:31:17;95693.28;;;7.00;70.01
6389;BME280;3227;42.654;23.360;2022-12-18T11:33:49;95678.66;;;6.95;70.11
6389;BME280;3227;42.654;23.360;2022-12-18T11:36:17;95693.19;;;6.97;68.55
6389;BME280;3227;42.654;23.360;2022-12-18T11:38:46;95687.13;;;6.94;69.49
6389;BME280;3227;42.654;23.360;2022-12-18T11:41:20;95692.91;;;7.15;70.22
6389;BME280;3227;42.654;23.360;2022-12-18T11:43:52;95700.41;;;7.10;70.31
6389;BME280;3227;42.654;23.360;2022-12-18T11:46:38;95665.25;;;7.00;69.60
6389;BME280;3227;42.654;23.360;2022-12-18T11:49:10;95648.81;;;6.91;69.87
6389;BME280;3227;42.654;23.360;2022-12-18T11:51:44;95698.56;;;7.33;69.16
6389;BME280;3227;42.654;23.360;2022-12-18T11:54:15;95703.09;;;7.15;68.42
6389;BME280;3227;42.654;23.360;2022-12-18T11:56:46;95689.09;;;7.29;68.66
6389;BME280;3227;42.654;23.360;2022-12-18T11:59:21;95692.22;;;7.20;68.67
6389;BME280;3227;42.654;23.360;2022-12-18T12:01:54;95693.72;;;7.14;66.08
6389;BME280;3227;42.654;23.360;2022-12-18T12:04:56;95689.28;;;7.35;69.15
6389;BME280;3227;42.654;23.360;2022-12-18T12:07:36;95688.47;;;7.36;67.06
6389;BME280;3227;42.654;23.360;2022-12-18T12:10:14;95637.91;;;6.95;67.38
6389;BME280;3227;42.654;23.360;2022-12-18T12:12:57;95696.06;;;7.35;67.98
6389;BME280;3227;42.654;23.360;2022-12-18T12:15:34;95693.56;;;7.36;67.63
6389;BME280;3227;42.654;23.360;2022-12-18T12:18:14;95690.97;;;7.35;67.92
6389;BME280;3227;42.654;23.360;2022-12-18T12:20:51;95689.63;;;7.46;69.38
6389;BME280;3227;42.654;23.360;2022-12-18T12:23:27;95692.22;;;7.47;68.95
6389;BME280;3227;42.654;23.360;2022-12-18T12:26:01;95696.63;;;7.53;68.69
6389;BME280;3227;42.654;23.360;2022-12-18T12:28:47;95691.47;;;7.51;67.25
6389;BME280;3227;42.654;23.360;2022-12-18T12:31:26;95659.56;;;7.36;68.46
6389;BME280;3227;42.654;23.360;2022-12-18T12:34:03;95698.47;;;7.57;67.43
6389;BME280;3227;42.654;23.360;2022-12-18T12:36:41;95697.78;;;7.62;69.88
6389;BME280;3227;42.654;23.360;2022-12-18T12:39:17;95701.09;;;7.60;70.06
6389;BME280;3227;42.654;23.360;2022-12-18T12:41:46;95682.94;;;7.49;68.97
6389;BME280;3227;42.654;23.360;2022-12-18T12:44:34;95691.03;;;7.64;67.32
6389;BME280;3227;42.654;23.360;2022-12-18T12:47:09;95692.78;;;7.66;68.38
6389;BME280;3227;42.654;23.360;2022-12-18T12:49:40;95641.97;;;7.45;69.00
6389;BME280;3227;42.654;23.360;2022-12-18T12:52:16;95698.63;;;7.63;69.77
6389;BME280;3227;42.654;23.360;2022-12-18T12:54:44;95702.13;;;7.67;69.09
6389;BME280;3227;42.654;23.360;2022-12-18T12:57:17;95698.22;;;7.49;67.69
6389;BME280;3227;42.654;23.360;2022-12-18T12:59:52;95708.97;;;7.68;69.85
6389;BME280;3227;42.654;23.360;2022-12-18T13:02:30;95711.63;;;7.71;69.52
6389;BME280;3227;42.654;23.360;2022-12-18T13:05:03;95721.72;;;7.68;68.20
6389;BME280;3227;42.654;23.360;2022-12-18T13:07:41;95722.47;;;7.63;68.08
6389;BME280;3227;42.654;23.360;2022-12-18T13:10:22;95723.22;;;7.61;70.61
6389;BME280;3227;42.654;23.360;2022-12-18T13:12:54;95728.56;;;7.69;69.49
6389;BME280;3227;42.654;23.360;2022-12-18T13:15:25;95721.38;;;7.55;68.03
6389;BME280;3227;42.654;23.360;2022-12-18T13:18:16;95734.41;;;7.66;69.68
6389;BME280;3227;42.654;23.360;2022-12-18T13:20:45;95698.19;;;7.48;69.89
6389;BME280;3227;42.654;23.360;2022-12-18T13:23:23;95737.72;;;7.62;67.84
6389;BME280;3227;42.654;23.360;2022-12-18T13:25:53;95682.03;;;7.20;68.65
6389;BME280;3227;42.654;23.360;2022-12-18T13:28:21;95742.75;;;7.60;68.57
6389;BME280;3227;42.654;23.360;2022-12-18T13:30:52;95744.59;;;7.64;68.94
6389;BME280;3227;42.654;23.360;2022-12-18T13:33:51;95742.13;;;7.68;69.09
6389;BME280;3227;42.654;23.360;2022-12-18T13:36:36;95752.25;;;7.64;67.87
6389;BME280;3227;42.654;23.360;2022-12-18T13:39:23;95748.03;;;7.65;68.24